Naha, Japan
Current Conditions -  °F | °C
As of 10:30 AM on Wednesday 26 Nov 2014 (Local Time) from ROAH Reporting Station
Broken Clouds Broken Clouds  
Wind Chill: 77°   Ceiling: 11000
Heat Index: 79°   Visibility: 6mi
Dew Point: 66°   Wind: 5mph
Humidity: 69%   Direction: 340°NNW
Pressure: 29.97"   Gusts: NA
Location:  26.21°N, 127.7°E
Report Text: ROAH 260130Z 34004KT 280V050 9999 FEW020 SCT060 BKN110 25/19 Q1015 RMK 1CU020 3SC060 6AC110 A3000
Loading
Personal Weather Stations






























Interactive Weather Map New forecast layout! Learn more

10-Day Weather Forecast

Advertisements
Track Severe Weather on mobile